sensor_id;sensor_type;location;lat;lon;timestamp;P1;durP1;ratioP1;P2;durP2;ratioP2
80675;SDS011;70041;46.088;18.268;2023-06-22T00:01:27;19.33;;;12.43;;
80675;SDS011;70041;46.088;18.268;2023-06-22T00:03:52;18.00;;;12.32;;
80675;SDS011;70041;46.088;18.268;2023-06-22T00:06:18;16.10;;;11.83;;
80675;SDS011;70041;46.088;18.268;2023-06-22T00:08:44;16.80;;;12.05;;
80675;SDS011;70041;46.088;18.268;2023-06-22T00:11:09;18.40;;;12.50;;
80675;SDS011;70041;46.088;18.268;2023-06-22T00:13:35;18.77;;;12.23;;
80675;SDS011;70041;46.088;18.268;2023-06-22T00:16:00;19.57;;;12.17;;
80675;SDS011;70041;46.088;18.268;2023-06-22T00:18:26;18.05;;;12.48;;
80675;SDS011;70041;46.088;18.268;2023-06-22T00:20:53;17.70;;;12.03;;
80675;SDS011;70041;46.088;18.268;2023-06-22T00:23:22;18.02;;;12.27;;
80675;SDS011;70041;46.088;18.268;2023-06-22T00:25:48;17.38;;;11.63;;
80675;SDS011;70041;46.088;18.268;2023-06-22T00:28:14;16.80;;;11.37;;
80675;SDS011;70041;46.088;18.268;2023-06-22T00:30:39;15.25;;;10.57;;
80675;SDS011;70041;46.088;18.268;2023-06-22T00:33:05;16.43;;;10.17;;
80675;SDS011;70041;46.088;18.268;2023-06-22T00:35:32;16.35;;;11.35;;
80675;SDS011;70041;46.088;18.268;2023-06-22T00:37:59;15.18;;;10.57;;
80675;SDS011;70041;46.088;18.268;2023-06-22T00:40:29;20.07;;;11.13;;
80675;SDS011;70041;46.088;18.268;2023-06-22T00:42:55;16.35;;;10.82;;
80675;SDS011;70041;46.088;18.268;2023-06-22T00:45:21;16.00;;;10.53;;
80675;SDS011;70041;46.088;18.268;2023-06-22T00:47:53;16.10;;;9.90;;
80675;SDS011;70041;46.088;18.268;2023-06-22T00:50:22;16.08;;;10.50;;
80675;SDS011;70041;46.088;18.268;2023-06-22T00:52:53;14.60;;;10.32;;
80675;SDS011;70041;46.088;18.268;2023-06-22T00:55:21;14.48;;;10.48;;
80675;SDS011;70041;46.088;18.268;2023-06-22T00:57:48;13.93;;;10.27;;
80675;SDS011;70041;46.088;18.268;2023-06-22T01:00:16;17.63;;;10.63;;
80675;SDS011;70041;46.088;18.268;2023-06-22T01:02:44;17.00;;;10.60;;
80675;SDS011;70041;46.088;18.268;2023-06-22T01:05:11;14.50;;;10.48;;
80675;SDS011;70041;46.088;18.268;2023-06-22T01:18:55;16.05;;;10.85;;
80675;SDS011;70041;46.088;18.268;2023-06-22T01:21:24;17.98;;;11.10;;
80675;SDS011;70041;46.088;18.268;2023-06-22T01:29:47;14.90;;;10.32;;
80675;SDS011;70041;46.088;18.268;2023-06-22T01:32:16;16.17;;;10.65;;
80675;SDS011;70041;46.088;18.268;2023-06-22T01:34:42;13.75;;;10.57;;
80675;SDS011;70041;46.088;18.268;2023-06-22T01:37:08;16.33;;;10.77;;
80675;SDS011;70041;46.088;18.268;2023-06-22T01:39:34;16.13;;;10.60;;
80675;SDS011;70041;46.088;18.268;2023-06-22T01:42:00;15.00;;;10.73;;
80675;SDS011;70041;46.088;18.268;2023-06-22T01:44:25;15.20;;;10.57;;
80675;SDS011;70041;46.088;18.268;2023-06-22T01:46:52;15.27;;;11.02;;
80675;SDS011;70041;46.088;18.268;2023-06-22T01:49:17;15.38;;;10.38;;
80675;SDS011;70041;46.088;18.268;2023-06-22T01:51:43;16.60;;;11.10;;
80675;SDS011;70041;46.088;18.268;2023-06-22T01:54:09;16.67;;;11.63;;
80675;SDS011;70041;46.088;18.268;2023-06-22T01:56:34;16.17;;;11.43;;
80675;SDS011;70041;46.088;18.268;2023-06-22T01:59:11;18.47;;;10.83;;
80675;SDS011;70041;46.088;18.268;2023-06-22T02:01:43;14.70;;;10.85;;
80675;SDS011;70041;46.088;18.268;2023-06-22T02:04:17;18.55;;;11.43;;
80675;SDS011;70041;46.088;18.268;2023-06-22T02:06:46;17.02;;;11.07;;
80675;SDS011;70041;46.088;18.268;2023-06-22T02:09:16;17.70;;;11.50;;
80675;SDS011;70041;46.088;18.268;2023-06-22T02:11:44;16.10;;;11.15;;
80675;SDS011;70041;46.088;18.268;2023-06-22T02:14:12;17.45;;;11.52;;
80675;SDS011;70041;46.088;18.268;2023-06-22T02:16:38;15.98;;;11.52;;
80675;SDS011;70041;46.088;18.268;2023-06-22T02:19:05;17.45;;;11.35;;
80675;SDS011;70041;46.088;18.268;2023-06-22T02:21:31;16.83;;;10.40;;
80675;SDS011;70041;46.088;18.268;2023-06-22T02:23:57;19.42;;;11.40;;
80675;SDS011;70041;46.088;18.268;2023-06-22T02:26:24;17.33;;;11.32;;
80675;SDS011;70041;46.088;18.268;2023-06-22T02:28:50;17.07;;;11.13;;
80675;SDS011;70041;46.088;18.268;2023-06-22T02:31:16;14.98;;;10.63;;
80675;SDS011;70041;46.088;18.268;2023-06-22T02:33:41;15.57;;;10.73;;
80675;SDS011;70041;46.088;18.268;2023-06-22T02:36:07;15.37;;;11.10;;
80675;SDS011;70041;46.088;18.268;2023-06-22T02:38:34;15.75;;;11.02;;
80675;SDS011;70041;46.088;18.268;2023-06-22T02:41:01;17.33;;;11.48;;
80675;SDS011;70041;46.088;18.268;2023-06-22T02:43:27;16.73;;;11.70;;
80675;SDS011;70041;46.088;18.268;2023-06-22T02:45:52;15.70;;;10.90;;
80675;SDS011;70041;46.088;18.268;2023-06-22T02:48:18;16.40;;;11.57;;
80675;SDS011;70041;46.088;18.268;2023-06-22T02:50:43;17.98;;;11.48;;
80675;SDS011;70041;46.088;18.268;2023-06-22T02:53:09;16.47;;;11.90;;
80675;SDS011;70041;46.088;18.268;2023-06-22T02:55:34;17.17;;;11.60;;
80675;SDS011;70041;46.088;18.268;2023-06-22T02:57:59;16.53;;;11.60;;
80675;SDS011;70041;46.088;18.268;2023-06-22T03:00:29;15.57;;;11.23;;
80675;SDS011;70041;46.088;18.268;2023-06-22T03:02:56;16.77;;;11.57;;
80675;SDS011;70041;46.088;18.268;2023-06-22T03:05:22;15.32;;;11.57;;
80675;SDS011;70041;46.088;18.268;2023-06-22T03:07:47;14.13;;;10.97;;
80675;SDS011;70041;46.088;18.268;2023-06-22T03:10:13;16.50;;;11.17;;
80675;SDS011;70041;46.088;18.268;2023-06-22T03:12:40;16.50;;;11.95;;
80675;SDS011;70041;46.088;18.268;2023-06-22T03:15:07;15.68;;;10.55;;
80675;SDS011;70041;46.088;18.268;2023-06-22T03:17:34;16.90;;;12.23;;
80675;SDS011;70041;46.088;18.268;2023-06-22T03:20:00;15.77;;;11.32;;
80675;SDS011;70041;46.088;18.268;2023-06-22T03:22:26;19.47;;;12.13;;
80675;SDS011;70041;46.088;18.268;2023-06-22T03:24:51;17.52;;;12.15;;
80675;SDS011;70041;46.088;18.268;2023-06-22T03:27:17;18.00;;;12.43;;
80675;SDS011;70041;46.088;18.268;2023-06-22T03:29:43;16.40;;;11.88;;
80675;SDS011;70041;46.088;18.268;2023-06-22T03:32:09;18.90;;;11.97;;
80675;SDS011;70041;46.088;18.268;2023-06-22T03:34:35;17.15;;;11.73;;
80675;SDS011;70041;46.088;18.268;2023-06-22T03:37:03;17.88;;;12.23;;
80675;SDS011;70041;46.088;18.268;2023-06-22T03:39:29;18.00;;;11.77;;
80675;SDS011;70041;46.088;18.268;2023-06-22T03:41:54;19.00;;;11.77;;
80675;SDS011;70041;46.088;18.268;2023-06-22T03:44:20;16.03;;;11.40;;
80675;SDS011;70041;46.088;18.268;2023-06-22T03:46:45;17.27;;;11.70;;
80675;SDS011;70041;46.088;18.268;2023-06-22T03:49:11;16.57;;;11.50;;
80675;SDS011;70041;46.088;18.268;2023-06-22T03:51:36;17.13;;;11.17;;
80675;SDS011;70041;46.088;18.268;2023-06-22T03:54:02;17.00;;;11.67;;
80675;SDS011;70041;46.088;18.268;2023-06-22T03:56:27;15.98;;;11.85;;
80675;SDS011;70041;46.088;18.268;2023-06-22T03:58:52;17.83;;;11.70;;
80675;SDS011;70041;46.088;18.268;2023-06-22T04:01:18;21.23;;;11.70;;
80675;SDS011;70041;46.088;18.268;2023-06-22T04:03:43;18.17;;;11.65;;
80675;SDS011;70041;46.088;18.268;2023-06-22T04:06:09;16.63;;;11.50;;
80675;SDS011;70041;46.088;18.268;2023-06-22T04:08:35;16.63;;;12.10;;
80675;SDS011;70041;46.088;18.268;2023-06-22T04:11:00;19.73;;;13.33;;
80675;SDS011;70041;46.088;18.268;2023-06-22T04:13:25;19.17;;;12.27;;
80675;SDS011;70041;46.088;18.268;2023-06-22T04:15:51;19.13;;;12.90;;
80675;SDS011;70041;46.088;18.268;2023-06-22T04:18:16;17.20;;;11.97;;
80675;SDS011;70041;46.088;18.268;2023-06-22T04:20:42;20.00;;;14.17;;
80675;SDS011;70041;46.088;18.268;2023-06-22T04:23:07;23.47;;;14.07;;
80675;SDS011;70041;46.088;18.268;2023-06-22T04:25:33;21.53;;;14.00;;
80675;SDS011;70041;46.088;18.268;2023-06-22T04:27:58;18.97;;;12.83;;
80675;SDS011;70041;46.088;18.268;2023-06-22T04:30:24;17.50;;;13.67;;
80675;SDS011;70041;46.088;18.268;2023-06-22T04:32:49;19.83;;;13.85;;
80675;SDS011;70041;46.088;18.268;2023-06-22T04:35:22;18.00;;;13.07;;
80675;SDS011;70041;46.088;18.268;2023-06-22T04:37:49;23.17;;;13.90;;
80675;SDS011;70041;46.088;18.268;2023-06-22T04:40:14;21.67;;;14.23;;
80675;SDS011;70041;46.088;18.268;2023-06-22T04:42:40;20.23;;;13.83;;
80675;SDS011;70041;46.088;18.268;2023-06-22T04:45:18;21.13;;;14.63;;
80675;SDS011;70041;46.088;18.268;2023-06-22T04:47:44;18.98;;;14.55;;
80675;SDS011;70041;46.088;18.268;2023-06-22T04:50:10;19.27;;;13.98;;
80675;SDS011;70041;46.088;18.268;2023-06-22T04:52:36;21.20;;;14.10;;
80675;SDS011;70041;46.088;18.268;2023-06-22T04:55:02;20.53;;;13.77;;
80675;SDS011;70041;46.088;18.268;2023-06-22T04:57:28;25.98;;;15.18;;
80675;SDS011;70041;46.088;18.268;2023-06-22T04:59:58;21.93;;;13.37;;
80675;SDS011;70041;46.088;18.268;2023-06-22T05:02:36;23.65;;;14.50;;
80675;SDS011;70041;46.088;18.268;2023-06-22T05:05:02;19.70;;;14.35;;
80675;SDS011;70041;46.088;18.268;2023-06-22T05:07:32;19.13;;;14.05;;
80675;SDS011;70041;46.088;18.268;2023-06-22T05:10:01;19.65;;;14.35;;
80675;SDS011;70041;46.088;18.268;2023-06-22T05:12:28;22.23;;;14.70;;
80675;SDS011;70041;46.088;18.268;2023-06-22T05:14:54;20.35;;;15.32;;
80675;SDS011;70041;46.088;18.268;2023-06-22T05:17:19;20.25;;;15.90;;
80675;SDS011;70041;46.088;18.268;2023-06-22T05:19:45;21.97;;;14.57;;
80675;SDS011;70041;46.088;18.268;2023-06-22T05:22:16;20.77;;;15.82;;
80675;SDS011;70041;46.088;18.268;2023-06-22T05:24:41;26.30;;;16.88;;
80675;SDS011;70041;46.088;18.268;2023-06-22T05:27:08;22.13;;;16.20;;
80675;SDS011;70041;46.088;18.268;2023-06-22T05:29:33;25.80;;;16.48;;
80675;SDS011;70041;46.088;18.268;2023-06-22T05:32:00;20.88;;;16.20;;
80675;SDS011;70041;46.088;18.268;2023-06-22T05:34:25;24.83;;;16.53;;
80675;SDS011;70041;46.088;18.268;2023-06-22T05:36:51;25.00;;;16.23;;
80675;SDS011;70041;46.088;18.268;2023-06-22T05:39:16;24.07;;;16.30;;
80675;SDS011;70041;46.088;18.268;2023-06-22T05:41:42;23.00;;;16.13;;
80675;SDS011;70041;46.088;18.268;2023-06-22T05:44:11;25.20;;;16.65;;
80675;SDS011;70041;46.088;18.268;2023-06-22T05:46:36;22.03;;;16.97;;
80675;SDS011;70041;46.088;18.268;2023-06-22T05:49:04;21.77;;;16.52;;
80675;SDS011;70041;46.088;18.268;2023-06-22T05:51:29;22.83;;;16.47;;
80675;SDS011;70041;46.088;18.268;2023-06-22T05:53:55;23.63;;;16.80;;
80675;SDS011;70041;46.088;18.268;2023-06-22T05:56:20;21.77;;;16.00;;
80675;SDS011;70041;46.088;18.268;2023-06-22T05:58:46;22.53;;;15.40;;
80675;SDS011;70041;46.088;18.268;2023-06-22T06:01:11;24.00;;;16.67;;
80675;SDS011;70041;46.088;18.268;2023-06-22T06:03:37;22.42;;;16.77;;
80675;SDS011;70041;46.088;18.268;2023-06-22T06:06:06;30.50;;;16.57;;
80675;SDS011;70041;46.088;18.268;2023-06-22T06:08:32;23.58;;;17.30;;
80675;SDS011;70041;46.088;18.268;2023-06-22T06:10:57;23.37;;;16.87;;
80675;SDS011;70041;46.088;18.268;2023-06-22T06:13:23;23.88;;;16.20;;
80675;SDS011;70041;46.088;18.268;2023-06-22T06:15:48;24.33;;;16.40;;
80675;SDS011;70041;46.088;18.268;2023-06-22T06:18:16;23.35;;;16.33;;
80675;SDS011;70041;46.088;18.268;2023-06-22T06:20:41;24.43;;;16.67;;
80675;SDS011;70041;46.088;18.268;2023-06-22T06:23:07;27.30;;;17.33;;
80675;SDS011;70041;46.088;18.268;2023-06-22T06:25:32;25.10;;;17.05;;
80675;SDS011;70041;46.088;18.268;2023-06-22T06:27:58;26.00;;;17.80;;
80675;SDS011;70041;46.088;18.268;2023-06-22T06:30:23;26.23;;;16.87;;
80675;SDS011;70041;46.088;18.268;2023-06-22T06:32:49;24.07;;;16.60;;
80675;SDS011;70041;46.088;18.268;2023-06-22T06:35:15;27.73;;;15.60;;
80675;SDS011;70041;46.088;18.268;2023-06-22T06:37:43;21.00;;;14.93;;
80675;SDS011;70041;46.088;18.268;2023-06-22T06:40:11;21.65;;;15.20;;
80675;SDS011;70041;46.088;18.268;2023-06-22T06:42:41;22.20;;;16.75;;
80675;SDS011;70041;46.088;18.268;2023-06-22T06:45:10;27.07;;;16.20;;
80675;SDS011;70041;46.088;18.268;2023-06-22T06:47:36;25.27;;;16.70;;
80675;SDS011;70041;46.088;18.268;2023-06-22T06:50:02;26.03;;;16.23;;
80675;SDS011;70041;46.088;18.268;2023-06-22T06:52:29;27.52;;;16.52;;
80675;SDS011;70041;46.088;18.268;2023-06-22T06:54:54;25.60;;;16.80;;
80675;SDS011;70041;46.088;18.268;2023-06-22T06:57:20;23.98;;;15.90;;
80675;SDS011;70041;46.088;18.268;2023-06-22T06:59:45;21.73;;;15.77;;
80675;SDS011;70041;46.088;18.268;2023-06-22T07:02:11;22.93;;;15.67;;
80675;SDS011;70041;46.088;18.268;2023-06-22T07:04:36;21.88;;;15.77;;
80675;SDS011;70041;46.088;18.268;2023-06-22T07:07:02;26.00;;;15.97;;
80675;SDS011;70041;46.088;18.268;2023-06-22T07:09:28;23.40;;;15.65;;
80675;SDS011;70041;46.088;18.268;2023-06-22T07:11:53;23.17;;;15.50;;
80675;SDS011;70041;46.088;18.268;2023-06-22T07:14:18;23.17;;;16.03;;
80675;SDS011;70041;46.088;18.268;2023-06-22T07:16:44;19.40;;;15.40;;
80675;SDS011;70041;46.088;18.268;2023-06-22T07:19:11;22.77;;;16.17;;
80675;SDS011;70041;46.088;18.268;2023-06-22T07:21:36;21.77;;;15.60;;
80675;SDS011;70041;46.088;18.268;2023-06-22T07:24:02;22.50;;;15.50;;
80675;SDS011;70041;46.088;18.268;2023-06-22T07:26:27;25.57;;;16.00;;
80675;SDS011;70041;46.088;18.268;2023-06-22T07:28:52;24.47;;;16.50;;
80675;SDS011;70041;46.088;18.268;2023-06-22T07:31:18;21.73;;;15.53;;
80675;SDS011;70041;46.088;18.268;2023-06-22T07:33:43;20.60;;;15.20;;
80675;SDS011;70041;46.088;18.268;2023-06-22T07:36:09;22.48;;;15.65;;
80675;SDS011;70041;46.088;18.268;2023-06-22T07:38:34;27.87;;;16.57;;
80675;SDS011;70041;46.088;18.268;2023-06-22T07:41:00;26.97;;;16.63;;
80675;SDS011;70041;46.088;18.268;2023-06-22T07:43:26;21.67;;;15.07;;
80675;SDS011;70041;46.088;18.268;2023-06-22T07:45:51;19.00;;;14.13;;
80675;SDS011;70041;46.088;18.268;2023-06-22T07:48:20;20.25;;;14.35;;
80675;SDS011;70041;46.088;18.268;2023-06-22T07:50:46;20.48;;;15.80;;
80675;SDS011;70041;46.088;18.268;2023-06-22T07:53:12;22.60;;;15.43;;
80675;SDS011;70041;46.088;18.268;2023-06-22T07:55:37;23.87;;;14.90;;
80675;SDS011;70041;46.088;18.268;2023-06-22T07:58:02;25.90;;;16.40;;
80675;SDS011;70041;46.088;18.268;2023-06-22T08:00:28;21.80;;;14.80;;
80675;SDS011;70041;46.088;18.268;2023-06-22T08:02:53;22.10;;;15.80;;
80675;SDS011;70041;46.088;18.268;2023-06-22T08:05:19;21.87;;;14.90;;
80675;SDS011;70041;46.088;18.268;2023-06-22T08:07:44;20.37;;;14.93;;
80675;SDS011;70041;46.088;18.268;2023-06-22T08:10:10;19.42;;;14.45;;
80675;SDS011;70041;46.088;18.268;2023-06-22T08:12:38;20.23;;;14.65;;
80675;SDS011;70041;46.088;18.268;2023-06-22T08:15:05;18.60;;;14.77;;
80675;SDS011;70041;46.088;18.268;2023-06-22T08:17:31;21.45;;;15.00;;
80675;SDS011;70041;46.088;18.268;2023-06-22T08:19:56;22.70;;;14.87;;
80675;SDS011;70041;46.088;18.268;2023-06-22T08:22:22;21.90;;;16.40;;
80675;SDS011;70041;46.088;18.268;2023-06-22T08:24:48;21.93;;;16.00;;
80675;SDS011;70041;46.088;18.268;2023-06-22T08:27:14;21.40;;;14.85;;
80675;SDS011;70041;46.088;18.268;2023-06-22T08:29:46;19.23;;;15.70;;
80675;SDS011;70041;46.088;18.268;2023-06-22T08:32:11;21.33;;;14.95;;
80675;SDS011;70041;46.088;18.268;2023-06-22T08:34:37;22.70;;;15.00;;
80675;SDS011;70041;46.088;18.268;2023-06-22T08:37:07;21.48;;;15.05;;
80675;SDS011;70041;46.088;18.268;2023-06-22T08:39:33;21.85;;;15.85;;
80675;SDS011;70041;46.088;18.268;2023-06-22T08:41:58;22.13;;;15.77;;
80675;SDS011;70041;46.088;18.268;2023-06-22T08:44:24;20.53;;;15.10;;
80675;SDS011;70041;46.088;18.268;2023-06-22T08:46:50;21.65;;;15.32;;
80675;SDS011;70041;46.088;18.268;2023-06-22T08:49:15;20.63;;;15.03;;
80675;SDS011;70041;46.088;18.268;2023-06-22T08:51:41;19.50;;;15.15;;
80675;SDS011;70041;46.088;18.268;2023-06-22T08:54:06;19.33;;;15.40;;
80675;SDS011;70041;46.088;18.268;2023-06-22T08:56:32;19.57;;;14.17;;
80675;SDS011;70041;46.088;18.268;2023-06-22T08:58:57;22.40;;;15.00;;
80675;SDS011;70041;46.088;18.268;2023-06-22T09:01:22;20.27;;;13.85;;
80675;SDS011;70041;46.088;18.268;2023-06-22T09:03:48;19.10;;;13.53;;
80675;SDS011;70041;46.088;18.268;2023-06-22T09:06:19;16.60;;;13.95;;
80675;SDS011;70041;46.088;18.268;2023-06-22T09:08:45;16.70;;;13.25;;
80675;SDS011;70041;46.088;18.268;2023-06-22T09:11:11;17.80;;;13.40;;
80675;SDS011;70041;46.088;18.268;2023-06-22T09:13:36;16.85;;;13.10;;
80675;SDS011;70041;46.088;18.268;2023-06-22T09:16:02;20.07;;;13.80;;
80675;SDS011;70041;46.088;18.268;2023-06-22T09:18:28;21.35;;;14.05;;
80675;SDS011;70041;46.088;18.268;2023-06-22T09:20:53;20.47;;;13.47;;
80675;SDS011;70041;46.088;18.268;2023-06-22T09:23:19;17.23;;;13.37;;
80675;SDS011;70041;46.088;18.268;2023-06-22T09:25:44;17.67;;;13.80;;
80675;SDS011;70041;46.088;18.268;2023-06-22T09:28:11;17.30;;;13.70;;
80675;SDS011;70041;46.088;18.268;2023-06-22T09:30:37;19.57;;;14.17;;
80675;SDS011;70041;46.088;18.268;2023-06-22T09:33:02;18.77;;;14.10;;
80675;SDS011;70041;46.088;18.268;2023-06-22T09:35:28;18.20;;;14.80;;
80675;SDS011;70041;46.088;18.268;2023-06-22T09:37:53;21.00;;;14.33;;
80675;SDS011;70041;46.088;18.268;2023-06-22T09:40:18;21.20;;;14.03;;
80675;SDS011;70041;46.088;18.268;2023-06-22T09:42:45;17.08;;;14.60;;
80675;SDS011;70041;46.088;18.268;2023-06-22T09:45:10;19.38;;;15.18;;
80675;SDS011;70041;46.088;18.268;2023-06-22T09:47:36;20.13;;;14.43;;
80675;SDS011;70041;46.088;18.268;2023-06-22T09:50:01;18.00;;;14.50;;
80675;SDS011;70041;46.088;18.268;2023-06-22T09:52:27;17.73;;;14.20;;
80675;SDS011;70041;46.088;18.268;2023-06-22T09:54:52;19.13;;;12.47;;
80675;SDS011;70041;46.088;18.268;2023-06-22T09:57:18;17.77;;;11.63;;
80675;SDS011;70041;46.088;18.268;2023-06-22T09:59:43;16.53;;;12.43;;
80675;SDS011;70041;46.088;18.268;2023-06-22T10:02:08;22.13;;;13.80;;
80675;SDS011;70041;46.088;18.268;2023-06-22T10:04:37;20.85;;;14.10;;
80675;SDS011;70041;46.088;18.268;2023-06-22T10:07:02;18.85;;;13.95;;
80675;SDS011;70041;46.088;18.268;2023-06-22T10:09:28;17.13;;;13.00;;
80675;SDS011;70041;46.088;18.268;2023-06-22T10:11:53;20.33;;;13.68;;
80675;SDS011;70041;46.088;18.268;2023-06-22T10:14:19;18.53;;;13.60;;
80675;SDS011;70041;46.088;18.268;2023-06-22T10:16:44;20.20;;;12.97;;
80675;SDS011;70041;46.088;18.268;2023-06-22T10:19:10;17.00;;;13.47;;
80675;SDS011;70041;46.088;18.268;2023-06-22T10:21:35;19.75;;;13.95;;
80675;SDS011;70041;46.088;18.268;2023-06-22T10:24:01;19.43;;;13.47;;
80675;SDS011;70041;46.088;18.268;2023-06-22T10:26:31;20.23;;;14.38;;
80675;SDS011;70041;46.088;18.268;2023-06-22T10:28:57;18.07;;;13.60;;
80675;SDS011;70041;46.088;18.268;2023-06-22T10:31:22;18.83;;;13.23;;
80675;SDS011;70041;46.088;18.268;2023-06-22T10:33:48;23.27;;;13.00;;
80675;SDS011;70041;46.088;18.268;2023-06-22T10:36:14;18.90;;;13.18;;
80675;SDS011;70041;46.088;18.268;2023-06-22T10:38:40;18.70;;;12.87;;
80675;SDS011;70041;46.088;18.268;2023-06-22T10:41:05;17.37;;;12.37;;
80675;SDS011;70041;46.088;18.268;2023-06-22T10:43:31;17.97;;;13.03;;
80675;SDS011;70041;46.088;18.268;2023-06-22T10:45:56;20.42;;;14.20;;
80675;SDS011;70041;46.088;18.268;2023-06-22T10:48:22;22.53;;;13.87;;
80675;SDS011;70041;46.088;18.268;2023-06-22T10:50:47;16.77;;;13.00;;
80675;SDS011;70041;46.088;18.268;2023-06-22T10:53:12;17.30;;;12.47;;
80675;SDS011;70041;46.088;18.268;2023-06-22T10:55:38;15.18;;;12.45;;
80675;SDS011;70041;46.088;18.268;2023-06-22T10:58:03;18.67;;;13.30;;
80675;SDS011;70041;46.088;18.268;2023-06-22T11:00:28;16.60;;;12.60;;
80675;SDS011;70041;46.088;18.268;2023-06-22T11:02:54;17.53;;;13.80;;
80675;SDS011;70041;46.088;18.268;2023-06-22T11:05:19;16.00;;;11.87;;
80675;SDS011;70041;46.088;18.268;2023-06-22T11:07:45;20.38;;;13.05;;
80675;SDS011;70041;46.088;18.268;2023-06-22T11:10:11;17.80;;;12.03;;
80675;SDS011;70041;46.088;18.268;2023-06-22T11:12:37;15.07;;;12.38;;
80675;SDS011;70041;46.088;18.268;2023-06-22T11:15:03;17.17;;;12.13;;
80675;SDS011;70041;46.088;18.268;2023-06-22T11:17:29;17.55;;;12.60;;
80675;SDS011;70041;46.088;18.268;2023-06-22T11:19:54;15.10;;;12.10;;
80675;SDS011;70041;46.088;18.268;2023-06-22T11:22:19;16.97;;;13.07;;
80675;SDS011;70041;46.088;18.268;2023-06-22T11:24:45;15.27;;;13.10;;
80675;SDS011;70041;46.088;18.268;2023-06-22T11:27:10;16.52;;;12.40;;
80675;SDS011;70041;46.088;18.268;2023-06-22T11:29:35;19.00;;;12.70;;
80675;SDS011;70041;46.088;18.268;2023-06-22T11:32:01;17.20;;;12.10;;
80675;SDS011;70041;46.088;18.268;2023-06-22T11:34:26;16.30;;;11.87;;
80675;SDS011;70041;46.088;18.268;2023-06-22T11:36:53;18.27;;;11.93;;
80675;SDS011;70041;46.088;18.268;2023-06-22T11:39:18;16.87;;;12.10;;
80675;SDS011;70041;46.088;18.268;2023-06-22T11:41:43;15.02;;;11.45;;
80675;SDS011;70041;46.088;18.268;2023-06-22T11:44:09;14.93;;;11.00;;
80675;SDS011;70041;46.088;18.268;2023-06-22T11:46:34;16.63;;;11.60;;
80675;SDS011;70041;46.088;18.268;2023-06-22T11:49:00;15.73;;;11.33;;
80675;SDS011;70041;46.088;18.268;2023-06-22T11:51:27;17.40;;;11.70;;
80675;SDS011;70041;46.088;18.268;2023-06-22T11:53:53;14.37;;;11.90;;
80675;SDS011;70041;46.088;18.268;2023-06-22T11:56:18;17.40;;;12.20;;
80675;SDS011;70041;46.088;18.268;2023-06-22T11:58:44;15.93;;;12.00;;
80675;SDS011;70041;46.088;18.268;2023-06-22T12:01:09;15.05;;;11.27;;
80675;SDS011;70041;46.088;18.268;2023-06-22T12:03:35;13.50;;;11.23;;
80675;SDS011;70041;46.088;18.268;2023-06-22T12:06:00;16.40;;;11.30;;
80675;SDS011;70041;46.088;18.268;2023-06-22T12:08:26;15.15;;;11.77;;
80675;SDS011;70041;46.088;18.268;2023-06-22T12:10:51;15.93;;;11.63;;
80675;SDS011;70041;46.088;18.268;2023-06-22T12:13:18;17.20;;;12.55;;
80675;SDS011;70041;46.088;18.268;2023-06-22T12:15:44;17.93;;;11.80;;
80675;SDS011;70041;46.088;18.268;2023-06-22T12:18:09;15.07;;;11.40;;
80675;SDS011;70041;46.088;18.268;2023-06-22T12:20:35;16.93;;;11.90;;
80675;SDS011;70041;46.088;18.268;2023-06-22T12:23:01;16.13;;;11.23;;
80675;SDS011;70041;46.088;18.268;2023-06-22T12:25:26;15.82;;;11.57;;
80675;SDS011;70041;46.088;18.268;2023-06-22T12:27:52;17.13;;;12.03;;
80675;SDS011;70041;46.088;18.268;2023-06-22T12:30:17;15.60;;;11.10;;
80675;SDS011;70041;46.088;18.268;2023-06-22T12:32:42;15.47;;;11.60;;
80675;SDS011;70041;46.088;18.268;2023-06-22T12:35:08;16.77;;;11.77;;
80675;SDS011;70041;46.088;18.268;2023-06-22T12:37:38;16.13;;;12.30;;
80675;SDS011;70041;46.088;18.268;2023-06-22T12:40:05;16.25;;;12.90;;
80675;SDS011;70041;46.088;18.268;2023-06-22T12:42:31;16.83;;;12.50;;
80675;SDS011;70041;46.088;18.268;2023-06-22T12:44:57;16.58;;;11.45;;
80675;SDS011;70041;46.088;18.268;2023-06-22T12:47:22;16.43;;;11.47;;
80675;SDS011;70041;46.088;18.268;2023-06-22T12:49:48;17.93;;;11.60;;
80675;SDS011;70041;46.088;18.268;2023-06-22T12:52:13;14.70;;;11.70;;
80675;SDS011;70041;46.088;18.268;2023-06-22T12:54:38;14.43;;;11.23;;
80675;SDS011;70041;46.088;18.268;2023-06-22T12:57:04;15.60;;;11.00;;
80675;SDS011;70041;46.088;18.268;2023-06-22T12:59:30;14.70;;;11.00;;
80675;SDS011;70041;46.088;18.268;2023-06-22T13:01:55;16.33;;;10.53;;
80675;SDS011;70041;46.088;18.268;2023-06-22T13:04:21;14.23;;;12.17;;
80675;SDS011;70041;46.088;18.268;2023-06-22T13:06:46;16.47;;;11.40;;
80675;SDS011;70041;46.088;18.268;2023-06-22T13:09:13;16.13;;;11.27;;
80675;SDS011;70041;46.088;18.268;2023-06-22T13:11:39;16.40;;;11.20;;
80675;SDS011;70041;46.088;18.268;2023-06-22T13:14:05;14.40;;;11.20;;
80675;SDS011;70041;46.088;18.268;2023-06-22T13:16:30;15.07;;;10.37;;
80675;SDS011;70041;46.088;18.268;2023-06-22T13:18:56;14.48;;;10.52;;
80675;SDS011;70041;46.088;18.268;2023-06-22T13:21:21;16.97;;;11.83;;
80675;SDS011;70041;46.088;18.268;2023-06-22T13:23:46;12.80;;;10.60;;
80675;SDS011;70041;46.088;18.268;2023-06-22T13:26:12;15.30;;;11.40;;
80675;SDS011;70041;46.088;18.268;2023-06-22T13:28:37;15.32;;;11.40;;
80675;SDS011;70041;46.088;18.268;2023-06-22T13:31:03;16.67;;;11.43;;
80675;SDS011;70041;46.088;18.268;2023-06-22T13:33:28;17.13;;;11.20;;
80675;SDS011;70041;46.088;18.268;2023-06-22T13:35:54;16.93;;;11.83;;
80675;SDS011;70041;46.088;18.268;2023-06-22T13:38:19;14.30;;;10.97;;
80675;SDS011;70041;46.088;18.268;2023-06-22T13:40:45;16.67;;;11.10;;
80675;SDS011;70041;46.088;18.268;2023-06-22T13:43:10;16.17;;;11.03;;
80675;SDS011;70041;46.088;18.268;2023-06-22T13:45:36;17.03;;;10.60;;
80675;SDS011;70041;46.088;18.268;2023-06-22T13:48:01;16.20;;;10.80;;
80675;SDS011;70041;46.088;18.268;2023-06-22T13:50:27;15.70;;;11.53;;
80675;SDS011;70041;46.088;18.268;2023-06-22T13:52:54;15.65;;;10.80;;
80675;SDS011;70041;46.088;18.268;2023-06-22T13:55:19;15.93;;;11.13;;
80675;SDS011;70041;46.088;18.268;2023-06-22T13:57:46;19.37;;;11.57;;
80675;SDS011;70041;46.088;18.268;2023-06-22T14:00:11;14.25;;;11.30;;
80675;SDS011;70041;46.088;18.268;2023-06-22T14:02:37;15.73;;;10.60;;
80675;SDS011;70041;46.088;18.268;2023-06-22T14:05:04;12.25;;;9.50;;
80675;SDS011;70041;46.088;18.268;2023-06-22T14:07:30;13.20;;;10.20;;
80675;SDS011;70041;46.088;18.268;2023-06-22T14:09:56;16.70;;;9.77;;
80675;SDS011;70041;46.088;18.268;2023-06-22T14:12:22;15.63;;;10.80;;
80675;SDS011;70041;46.088;18.268;2023-06-22T14:14:48;14.93;;;10.45;;
80675;SDS011;70041;46.088;18.268;2023-06-22T14:17:13;12.77;;;9.93;;
80675;SDS011;70041;46.088;18.268;2023-06-22T14:19:39;16.53;;;9.97;;